sensor_id;sensor_type;location;lat;lon;timestamp;pressure;altitude;pressure_sealevel;temperature;humidity
72636;BME280;60679;48.888;15.544;2024-03-17T00:01:49;96629.59;;;5.47;71.16
72636;BME280;60679;48.888;15.544;2024-03-17T00:04:15;96631.50;;;5.39;71.38
72636;BME280;60679;48.888;15.544;2024-03-17T00:06:40;96642.09;;;5.32;71.25
72636;BME280;60679;48.888;15.544;2024-03-17T00:09:05;96651.34;;;5.30;71.31
72636;BME280;60679;48.888;15.544;2024-03-17T00:11:35;96653.72;;;5.24;71.39
72636;BME280;60679;48.888;15.544;2024-03-17T00:14:01;96660.44;;;5.20;71.31
72636;BME280;60679;48.888;15.544;2024-03-17T00:16:26;96658.31;;;5.16;71.35
72636;BME280;60679;48.888;15.544;2024-03-17T00:18:52;96670.03;;;5.15;71.43
72636;BME280;60679;48.888;15.544;2024-03-17T00:21:18;96673.06;;;5.12;71.22
72636;BME280;60679;48.888;15.544;2024-03-17T00:23:46;96685.81;;;5.10;71.42
72636;BME280;60679;48.888;15.544;2024-03-17T00:26:12;96679.63;;;5.09;71.18
72636;BME280;60679;48.888;15.544;2024-03-17T00:28:37;96680.16;;;5.05;71.21
72636;BME280;60679;48.888;15.544;2024-03-17T00:31:03;96682.66;;;5.06;71.49
72636;BME280;60679;48.888;15.544;2024-03-17T00:33:29;96683.13;;;5.10;71.23
72636;BME280;60679;48.888;15.544;2024-03-17T00:35:54;96692.00;;;5.10;71.36
72636;BME280;60679;48.888;15.544;2024-03-17T00:38:19;96696.88;;;5.07;71.17
72636;BME280;60679;48.888;15.544;2024-03-17T00:40:45;96698.22;;;5.03;71.11
72636;BME280;60679;48.888;15.544;2024-03-17T00:43:11;96697.28;;;4.96;71.24
72636;BME280;60679;48.888;15.544;2024-03-17T00:45:39;96699.13;;;4.95;71.41
72636;BME280;60679;48.888;15.544;2024-03-17T00:48:05;96700.97;;;4.95;71.43
72636;BME280;60679;48.888;15.544;2024-03-17T00:50:31;96689.41;;;4.94;71.47
72636;BME280;60679;48.888;15.544;2024-03-17T00:52:57;96692.66;;;4.90;71.17
72636;BME280;60679;48.888;15.544;2024-03-17T00:55:22;96695.03;;;4.85;71.16
72636;BME280;60679;48.888;15.544;2024-03-17T00:57:47;96690.19;;;4.80;71.33
72636;BME280;60679;48.888;15.544;2024-03-17T01:00:13;96693.06;;;4.79;71.34
72636;BME280;60679;48.888;15.544;2024-03-17T01:02:40;96689.69;;;4.85;71.62
72636;BME280;60679;48.888;15.544;2024-03-17T01:05:05;96692.66;;;4.90;71.36
72636;BME280;60679;48.888;15.544;2024-03-17T01:07:34;96694.31;;;4.91;71.32
72636;BME280;60679;48.888;15.544;2024-03-17T01:09:59;96696.66;;;4.94;71.48
72636;BME280;60679;48.888;15.544;2024-03-17T01:12:25;96698.47;;;4.93;71.44
72636;BME280;60679;48.888;15.544;2024-03-17T01:14:51;96695.81;;;4.93;71.48
72636;BME280;60679;48.888;15.544;2024-03-17T01:17:16;96691.44;;;4.92;71.42
72636;BME280;60679;48.888;15.544;2024-03-17T01:19:44;96686.09;;;4.92;71.45
72636;BME280;60679;48.888;15.544;2024-03-17T01:22:09;96684.81;;;4.88;71.24
72636;BME280;60679;48.888;15.544;2024-03-17T01:24:35;96681.66;;;4.85;71.46
72636;BME280;60679;48.888;15.544;2024-03-17T01:27:00;96680.31;;;4.81;71.48
72636;BME280;60679;48.888;15.544;2024-03-17T01:29:27;96682.16;;;4.80;71.61
72636;BME280;60679;48.888;15.544;2024-03-17T01:31:52;96681.34;;;4.80;71.36
72636;BME280;60679;48.888;15.544;2024-03-17T01:34:18;96690.19;;;4.80;71.42
72636;BME280;60679;48.888;15.544;2024-03-17T01:36:44;96684.41;;;4.68;71.28
72636;BME280;60679;48.888;15.544;2024-03-17T01:39:09;96695.31;;;4.67;71.19
72636;BME280;60679;48.888;15.544;2024-03-17T01:41:35;96696.19;;;4.59;71.34
72636;BME280;60679;48.888;15.544;2024-03-17T01:44:00;96700.75;;;4.51;71.35
72636;BME280;60679;48.888;15.544;2024-03-17T01:46:25;96695.25;;;4.44;71.34
72636;BME280;60679;48.888;15.544;2024-03-17T01:48:51;96699.13;;;4.42;71.47
72636;BME280;60679;48.888;15.544;2024-03-17T01:51:17;96704.28;;;4.43;71.46
72636;BME280;60679;48.888;15.544;2024-03-17T01:53:43;96702.28;;;4.45;71.48
72636;BME280;60679;48.888;15.544;2024-03-17T01:56:10;96706.09;;;4.51;71.65
72636;BME280;60679;48.888;15.544;2024-03-17T01:58:36;96702.06;;;4.55;71.71
72636;BME280;60679;48.888;15.544;2024-03-17T02:01:02;96697.03;;;4.60;71.71
72636;BME280;60679;48.888;15.544;2024-03-17T02:03:29;96697.47;;;4.63;71.31
72636;BME280;60679;48.888;15.544;2024-03-17T02:05:55;96696.66;;;4.63;71.58
72636;BME280;60679;48.888;15.544;2024-03-17T02:08:20;96704.38;;;4.58;71.47
72636;BME280;60679;48.888;15.544;2024-03-17T02:10:54;96702.72;;;4.57;71.65
72636;BME280;60679;48.888;15.544;2024-03-17T02:13:21;96706.56;;;4.54;71.31
72636;BME280;60679;48.888;15.544;2024-03-17T02:15:47;96699.72;;;4.52;71.47
72636;BME280;60679;48.888;15.544;2024-03-17T02:18:12;96710.13;;;4.47;71.49
72636;BME280;60679;48.888;15.544;2024-03-17T02:20:38;96708.31;;;4.39;71.33
72636;BME280;60679;48.888;15.544;2024-03-17T02:23:23;96711.03;;;4.31;71.43
72636;BME280;60679;48.888;15.544;2024-03-17T02:25:52;96718.25;;;4.23;71.32
72636;BME280;60679;48.888;15.544;2024-03-17T02:28:17;96708.59;;;4.14;71.18
72636;BME280;60679;48.888;15.544;2024-03-17T02:30:43;96715.81;;;4.05;71.63
72636;BME280;60679;48.888;15.544;2024-03-17T02:33:08;96712.34;;;3.96;71.31
72636;BME280;60679;48.888;15.544;2024-03-17T02:35:33;96701.53;;;3.82;71.23
72636;BME280;60679;48.888;15.544;2024-03-17T02:37:59;96702.06;;;3.69;71.33
72636;BME280;60679;48.888;15.544;2024-03-17T02:40:24;96704.75;;;3.61;71.40
72636;BME280;60679;48.888;15.544;2024-03-17T02:42:49;96707.59;;;3.52;71.66
72636;BME280;60679;48.888;15.544;2024-03-17T02:45:15;96698.44;;;3.46;71.38
72636;BME280;60679;48.888;15.544;2024-03-17T02:47:42;96693.25;;;3.36;71.52
72636;BME280;60679;48.888;15.544;2024-03-17T02:50:08;96703.09;;;3.28;71.39
72636;BME280;60679;48.888;15.544;2024-03-17T02:52:34;96700.97;;;3.23;71.70
72636;BME280;60679;48.888;15.544;2024-03-17T02:54:59;96706.97;;;3.17;71.64
72636;BME280;60679;48.888;15.544;2024-03-17T02:57:25;96709.31;;;3.12;71.68
72636;BME280;60679;48.888;15.544;2024-03-17T02:59:54;96707.28;;;3.06;71.68
72636;BME280;60679;48.888;15.544;2024-03-17T03:02:19;96705.63;;;2.97;71.60
72636;BME280;60679;48.888;15.544;2024-03-17T03:04:45;96714.97;;;2.85;71.56
72636;BME280;60679;48.888;15.544;2024-03-17T03:07:10;96710.09;;;2.72;71.75
72636;BME280;60679;48.888;15.544;2024-03-17T03:09:36;96708.59;;;2.62;71.46
72636;BME280;60679;48.888;15.544;2024-03-17T03:12:01;96713.72;;;2.47;71.56
72636;BME280;60679;48.888;15.544;2024-03-17T03:14:30;96713.34;;;2.34;71.79
72636;BME280;60679;48.888;15.544;2024-03-17T03:16:57;96714.00;;;2.28;71.81
72636;BME280;60679;48.888;15.544;2024-03-17T03:19:22;96714.00;;;2.28;71.68
72636;BME280;60679;48.888;15.544;2024-03-17T03:21:48;96713.16;;;2.27;71.90
72636;BME280;60679;48.888;15.544;2024-03-17T03:24:14;96718.81;;;2.32;71.80
72636;BME280;60679;48.888;15.544;2024-03-17T03:26:39;96720.00;;;2.38;71.99
72636;BME280;60679;48.888;15.544;2024-03-17T03:29:05;96716.53;;;2.46;71.76
72636;BME280;60679;48.888;15.544;2024-03-17T03:31:33;96726.38;;;2.45;71.91
72636;BME280;60679;48.888;15.544;2024-03-17T03:33:59;96725.19;;;2.40;71.85
72636;BME280;60679;48.888;15.544;2024-03-17T03:36:28;96729.19;;;2.44;71.88
72636;BME280;60679;48.888;15.544;2024-03-17T03:38:54;96732.19;;;2.49;72.17
72636;BME280;60679;48.888;15.544;2024-03-17T03:41:22;96727.22;;;2.54;72.08
72636;BME280;60679;48.888;15.544;2024-03-17T03:43:48;96740.91;;;2.59;71.95
72636;BME280;60679;48.888;15.544;2024-03-17T03:46:13;96738.06;;;2.60;72.01
72636;BME280;60679;48.888;15.544;2024-03-17T03:48:39;96739.41;;;2.64;72.13
72636;BME280;60679;48.888;15.544;2024-03-17T03:51:08;96736.94;;;2.71;72.13
72636;BME280;60679;48.888;15.544;2024-03-17T03:53:35;96734.09;;;2.72;71.98
72636;BME280;60679;48.888;15.544;2024-03-17T03:56:03;96735.38;;;2.60;71.63
72636;BME280;60679;48.888;15.544;2024-03-17T03:58:34;96734.72;;;2.50;71.77
72636;BME280;60679;48.888;15.544;2024-03-17T04:01:03;96721.84;;;2.46;71.99
72636;BME280;60679;48.888;15.544;2024-03-17T04:03:28;96716.72;;;2.52;72.31
72636;BME280;60679;48.888;15.544;2024-03-17T04:06:07;96717.56;;;2.53;72.01
72636;BME280;60679;48.888;15.544;2024-03-17T04:08:37;96722.88;;;2.45;71.91
72636;BME280;60679;48.888;15.544;2024-03-17T04:11:03;96720.66;;;2.32;71.97
72636;BME280;60679;48.888;15.544;2024-03-17T04:13:31;96721.13;;;2.19;71.73
72636;BME280;60679;48.888;15.544;2024-03-17T04:15:59;96726.25;;;2.13;71.96
72636;BME280;60679;48.888;15.544;2024-03-17T04:18:25;96724.91;;;2.09;71.92
72636;BME280;60679;48.888;15.544;2024-03-17T04:20:52;96728.88;;;2.05;71.76
72636;BME280;60679;48.888;15.544;2024-03-17T04:23:20;96738.97;;;1.93;71.87
72636;BME280;60679;48.888;15.544;2024-03-17T04:25:45;96741.09;;;1.90;72.02
72636;BME280;60679;48.888;15.544;2024-03-17T04:28:10;96737.25;;;1.84;72.17
72636;BME280;60679;48.888;15.544;2024-03-17T04:30:36;96744.78;;;1.89;72.14
72636;BME280;60679;48.888;15.544;2024-03-17T04:33:02;96738.44;;;1.90;72.19
72636;BME280;60679;48.888;15.544;2024-03-17T04:35:28;96742.44;;;1.86;72.13
72636;BME280;60679;48.888;15.544;2024-03-17T04:37:54;96747.91;;;1.84;72.10
72636;BME280;60679;48.888;15.544;2024-03-17T04:40:22;96746.72;;;1.79;72.21
72636;BME280;60679;48.888;15.544;2024-03-17T04:42:47;96753.34;;;1.74;72.09
72636;BME280;60679;48.888;15.544;2024-03-17T04:45:13;96751.00;;;1.71;72.26
72636;BME280;60679;48.888;15.544;2024-03-17T04:47:38;96750.31;;;1.69;72.14
72636;BME280;60679;48.888;15.544;2024-03-17T04:50:04;96750.31;;;1.69;72.14
72636;BME280;60679;48.888;15.544;2024-03-17T04:52:29;96747.72;;;1.78;72.36
72636;BME280;60679;48.888;15.544;2024-03-17T04:54:55;96748.25;;;1.89;72.35
72636;BME280;60679;48.888;15.544;2024-03-17T04:57:20;96755.16;;;2.00;72.32
72636;BME280;60679;48.888;15.544;2024-03-17T04:59:45;96746.00;;;2.02;72.48
72636;BME280;60679;48.888;15.544;2024-03-17T05:02:11;96753.50;;;2.07;72.28
72636;BME280;60679;48.888;15.544;2024-03-17T05:04:36;96756.53;;;2.12;72.09
72636;BME280;60679;48.888;15.544;2024-03-17T05:07:02;96758.56;;;2.18;72.34
72636;BME280;60679;48.888;15.544;2024-03-17T05:09:27;96745.09;;;2.19;72.10
72636;BME280;60679;48.888;15.544;2024-03-17T05:11:52;96753.13;;;2.27;72.29
72636;BME280;60679;48.888;15.544;2024-03-17T05:14:18;96754.31;;;2.41;72.21
72636;BME280;60679;48.888;15.544;2024-03-17T05:16:50;96751.38;;;2.52;71.90
72636;BME280;60679;48.888;15.544;2024-03-17T05:19:15;96758.88;;;2.57;71.99
72636;BME280;60679;48.888;15.544;2024-03-17T05:21:43;96763.41;;;2.64;71.88
72636;BME280;60679;48.888;15.544;2024-03-17T05:24:08;96764.09;;;2.74;71.85
72636;BME280;60679;48.888;15.544;2024-03-17T05:26:33;96757.94;;;2.82;71.76
72636;BME280;60679;48.888;15.544;2024-03-17T05:28:59;96758.94;;;2.89;71.39
72636;BME280;60679;48.888;15.544;2024-03-17T05:31:24;96756.94;;;2.91;71.49
72636;BME280;60679;48.888;15.544;2024-03-17T05:33:50;96756.47;;;2.96;71.39
72636;BME280;60679;48.888;15.544;2024-03-17T05:36:17;96755.97;;;3.00;71.09
72636;BME280;60679;48.888;15.544;2024-03-17T05:38:45;96762.78;;;3.03;71.33
72636;BME280;60679;48.888;15.544;2024-03-17T05:41:10;96769.16;;;3.10;70.88
72636;BME280;60679;48.888;15.544;2024-03-17T05:43:37;96767.66;;;3.15;71.04
72636;BME280;60679;48.888;15.544;2024-03-17T05:46:04;96765.66;;;3.25;71.00
72636;BME280;60679;48.888;15.544;2024-03-17T05:48:37;96772.66;;;3.42;70.81
72636;BME280;60679;48.888;15.544;2024-03-17T05:51:04;96779.16;;;3.56;70.74
72636;BME280;60679;48.888;15.544;2024-03-17T05:53:29;96780.69;;;3.67;70.55
72636;BME280;60679;48.888;15.544;2024-03-17T05:55:58;96771.16;;;3.80;70.36
72636;BME280;60679;48.888;15.544;2024-03-17T05:58:24;96771.75;;;3.98;70.24
72636;BME280;60679;48.888;15.544;2024-03-17T06:00:49;96782.09;;;4.18;69.81
72636;BME280;60679;48.888;15.544;2024-03-17T06:03:15;96774.50;;;4.37;69.71
72636;BME280;60679;48.888;15.544;2024-03-17T06:05:40;96779.59;;;4.55;69.33
72636;BME280;60679;48.888;15.544;2024-03-17T06:08:06;96777.03;;;4.70;69.19
72636;BME280;60679;48.888;15.544;2024-03-17T06:10:35;96777.06;;;4.92;69.04
72636;BME280;60679;48.888;15.544;2024-03-17T06:13:02;96790.47;;;5.15;68.50
72636;BME280;60679;48.888;15.544;2024-03-17T06:15:28;96783.09;;;5.17;68.66
72636;BME280;60679;48.888;15.544;2024-03-17T06:17:54;96778.59;;;5.17;68.51
72636;BME280;60679;48.888;15.544;2024-03-17T06:20:22;96779.91;;;5.21;68.64
72636;BME280;60679;48.888;15.544;2024-03-17T06:22:48;96782.38;;;5.23;68.48
72636;BME280;60679;48.888;15.544;2024-03-17T06:25:14;96779.38;;;5.26;68.71
72636;BME280;60679;48.888;15.544;2024-03-17T06:27:40;96785.84;;;5.32;68.59
72636;BME280;60679;48.888;15.544;2024-03-17T06:30:06;96788.81;;;5.37;68.58
72636;BME280;60679;48.888;15.544;2024-03-17T06:32:34;96786.56;;;5.48;68.77
72636;BME280;60679;48.888;15.544;2024-03-17T06:35:03;96792.63;;;5.65;68.39
72636;BME280;60679;48.888;15.544;2024-03-17T06:37:28;96796.78;;;5.67;68.09
72636;BME280;60679;48.888;15.544;2024-03-17T06:39:54;96805.94;;;5.73;67.41
72636;BME280;60679;48.888;15.544;2024-03-17T06:42:20;96807.31;;;5.69;67.57
72636;BME280;60679;48.888;15.544;2024-03-17T06:44:45;96797.41;;;5.55;67.93
72636;BME280;60679;48.888;15.544;2024-03-17T06:47:11;96800.84;;;5.63;67.87
72636;BME280;60679;48.888;15.544;2024-03-17T06:49:36;96812.84;;;5.67;67.82
72636;BME280;60679;48.888;15.544;2024-03-17T06:52:02;96817.53;;;6.11;66.98
72636;BME280;60679;48.888;15.544;2024-03-17T06:54:27;96813.75;;;6.49;66.01
72636;BME280;60679;48.888;15.544;2024-03-17T06:56:53;96817.91;;;6.22;66.69
72636;BME280;60679;48.888;15.544;2024-03-17T06:59:18;96814.69;;;6.27;66.87
72636;BME280;60679;48.888;15.544;2024-03-17T07:01:44;96817.13;;;6.66;66.13
72636;BME280;60679;48.888;15.544;2024-03-17T07:04:10;96825.53;;;6.63;66.11
72636;BME280;60679;48.888;15.544;2024-03-17T07:06:36;96818.97;;;6.65;66.05
72636;BME280;60679;48.888;15.544;2024-03-17T07:09:04;96829.13;;;6.70;65.78
72636;BME280;60679;48.888;15.544;2024-03-17T07:11:29;96827.00;;;6.80;65.73
72636;BME280;60679;48.888;15.544;2024-03-17T07:13:55;96828.38;;;7.05;65.53
72636;BME280;60679;48.888;15.544;2024-03-17T07:16:20;96822.09;;;7.76;64.55
72636;BME280;60679;48.888;15.544;2024-03-17T07:18:51;96823.13;;;8.24;63.62
72636;BME280;60679;48.888;15.544;2024-03-17T07:21:17;96820.19;;;8.19;63.40
72636;BME280;60679;48.888;15.544;2024-03-17T07:23:43;96825.59;;;8.47;63.09
72636;BME280;60679;48.888;15.544;2024-03-17T07:26:08;96827.78;;;8.64;62.70
72636;BME280;60679;48.888;15.544;2024-03-17T07:28:34;96831.22;;;8.80;62.20
72636;BME280;60679;48.888;15.544;2024-03-17T07:31:01;96826.78;;;9.06;61.67
72636;BME280;60679;48.888;15.544;2024-03-17T07:33:27;96824.16;;;10.39;59.73
72636;BME280;60679;48.888;15.544;2024-03-17T07:35:56;96816.00;;;15.34;52.31
72636;BME280;60679;48.888;15.544;2024-03-17T07:38:25;96809.88;;;18.41;47.39
72636;BME280;60679;48.888;15.544;2024-03-17T07:41:02;96819.97;;;17.06;48.75
72636;BME280;60679;48.888;15.544;2024-03-17T07:43:29;96809.22;;;19.92;44.68
72636;BME280;60679;48.888;15.544;2024-03-17T07:46:06;96817.00;;;20.25;43.38
72636;BME280;60679;48.888;15.544;2024-03-17T07:48:34;96808.28;;;20.48;43.11
72636;BME280;60679;48.888;15.544;2024-03-17T07:51:01;96809.91;;;17.93;45.91
72636;BME280;60679;48.888;15.544;2024-03-17T07:53:29;96809.75;;;19.32;44.40
72636;BME280;60679;48.888;15.544;2024-03-17T07:55:59;96815.56;;;17.21;46.67
72636;BME280;60679;48.888;15.544;2024-03-17T07:58:25;96812.00;;;17.43;46.26
72636;BME280;60679;48.888;15.544;2024-03-17T08:00:52;96811.03;;;20.79;41.64
72636;BME280;60679;48.888;15.544;2024-03-17T08:03:18;96802.59;;;22.33;40.22
72636;BME280;60679;48.888;15.544;2024-03-17T08:05:48;96814.25;;;17.67;45.20
72636;BME280;60679;48.888;15.544;2024-03-17T08:08:14;96817.38;;;17.54;45.00
72636;BME280;60679;48.888;15.544;2024-03-17T08:10:39;96819.19;;;15.31;48.60
72636;BME280;60679;48.888;15.544;2024-03-17T08:13:05;96801.47;;;19.79;43.03
72636;BME280;60679;48.888;15.544;2024-03-17T08:15:30;96807.75;;;15.69;48.55
72636;BME280;60679;48.888;15.544;2024-03-17T08:17:56;96801.66;;;20.44;42.74
72636;BME280;60679;48.888;15.544;2024-03-17T08:20:21;96802.72;;;21.44;40.73
72636;BME280;60679;48.888;15.544;2024-03-17T08:22:46;96800.22;;;16.82;46.77
72636;BME280;60679;48.888;15.544;2024-03-17T08:25:12;96815.06;;;14.06;50.90
72636;BME280;60679;48.888;15.544;2024-03-17T08:27:37;96806.41;;;11.84;54.27
72636;BME280;60679;48.888;15.544;2024-03-17T08:30:02;96815.69;;;11.13;55.28
72636;BME280;60679;48.888;15.544;2024-03-17T08:32:28;96801.63;;;15.90;50.11
72636;BME280;60679;48.888;15.544;2024-03-17T08:34:54;96804.91;;;13.42;52.60
72636;BME280;60679;48.888;15.544;2024-03-17T08:37:20;96806.44;;;11.78;54.99
72636;BME280;60679;48.888;15.544;2024-03-17T08:39:46;96811.28;;;11.69;55.31
72636;BME280;60679;48.888;15.544;2024-03-17T08:42:12;96810.66;;;13.81;52.61
72636;BME280;60679;48.888;15.544;2024-03-17T08:44:37;96808.66;;;13.04;53.07
72636;BME280;60679;48.888;15.544;2024-03-17T08:47:02;96817.69;;;11.81;55.25
72636;BME280;60679;48.888;15.544;2024-03-17T08:49:29;96802.56;;;18.20;46.22
72636;BME280;60679;48.888;15.544;2024-03-17T08:51:54;96797.25;;;22.08;41.34
72636;BME280;60679;48.888;15.544;2024-03-17T08:54:19;96793.25;;;23.60;39.35
72636;BME280;60679;48.888;15.544;2024-03-17T08:56:45;96790.78;;;24.61;37.94
72636;BME280;60679;48.888;15.544;2024-03-17T08:59:10;96795.88;;;21.32;41.17
72636;BME280;60679;48.888;15.544;2024-03-17T09:01:37;96781.88;;;22.41;39.85
72636;BME280;60679;48.888;15.544;2024-03-17T09:04:03;96785.66;;;18.92;44.20
72636;BME280;60679;48.888;15.544;2024-03-17T09:06:28;96796.34;;;15.43;48.91
72636;BME280;60679;48.888;15.544;2024-03-17T09:08:55;96794.69;;;16.27;48.24
72636;BME280;60679;48.888;15.544;2024-03-17T09:11:20;96783.81;;;22.46;40.72
72636;BME280;60679;48.888;15.544;2024-03-17T09:13:50;96778.06;;;24.79;38.67
72636;BME280;60679;48.888;15.544;2024-03-17T09:16:16;96773.84;;;23.88;38.87
72636;BME280;60679;48.888;15.544;2024-03-17T09:18:43;96776.91;;;20.19;42.63
72636;BME280;60679;48.888;15.544;2024-03-17T09:21:09;96788.81;;;15.22;49.41
72636;BME280;60679;48.888;15.544;2024-03-17T09:23:35;96788.69;;;15.29;50.13
72636;BME280;60679;48.888;15.544;2024-03-17T09:26:07;96779.41;;;22.44;41.43
72636;BME280;60679;48.888;15.544;2024-03-17T09:28:36;96772.72;;;24.69;38.63
72636;BME280;60679;48.888;15.544;2024-03-17T09:31:02;96773.91;;;25.73;36.97
72636;BME280;60679;48.888;15.544;2024-03-17T09:33:29;96770.56;;;26.26;36.43
72636;BME280;60679;48.888;15.544;2024-03-17T09:36:06;96766.97;;;26.25;35.95
72636;BME280;60679;48.888;15.544;2024-03-17T09:38:33;96765.28;;;24.32;38.45
72636;BME280;60679;48.888;15.544;2024-03-17T09:40:59;96781.47;;;18.48;44.31
72636;BME280;60679;48.888;15.544;2024-03-17T09:43:28;96762.25;;;21.60;41.41
72636;BME280;60679;48.888;15.544;2024-03-17T09:45:54;96763.25;;;23.00;39.57
72636;BME280;60679;48.888;15.544;2024-03-17T09:48:23;96745.91;;;23.95;39.35
72636;BME280;60679;48.888;15.544;2024-03-17T09:50:54;96762.16;;;18.96;44.40
72636;BME280;60679;48.888;15.544;2024-03-17T09:53:25;96758.06;;;20.68;42.82
72636;BME280;60679;48.888;15.544;2024-03-17T09:55:52;96755.69;;;18.70;45.27
72636;BME280;60679;48.888;15.544;2024-03-17T09:58:19;96751.97;;;20.21;43.85
72636;BME280;60679;48.888;15.544;2024-03-17T10:00:45;96750.91;;;20.37;43.31
72636;BME280;60679;48.888;15.544;2024-03-17T10:03:11;96735.78;;;23.90;39.95
72636;BME280;60679;48.888;15.544;2024-03-17T10:05:36;96736.03;;;24.82;38.93
72636;BME280;60679;48.888;15.544;2024-03-17T10:08:02;96748.66;;;21.24;42.07
72636;BME280;60679;48.888;15.544;2024-03-17T10:10:27;96747.59;;;20.85;42.22
72636;BME280;60679;48.888;15.544;2024-03-17T10:12:53;96751.41;;;17.89;46.09
72636;BME280;60679;48.888;15.544;2024-03-17T10:15:19;96751.28;;;18.64;46.30
72636;BME280;60679;48.888;15.544;2024-03-17T10:17:45;96736.19;;;18.30;46.70
72636;BME280;60679;48.888;15.544;2024-03-17T10:20:11;96740.09;;;16.55;48.46
72636;BME280;60679;48.888;15.544;2024-03-17T10:22:37;96738.63;;;17.95;46.86
72636;BME280;60679;48.888;15.544;2024-03-17T10:25:03;96735.16;;;19.15;45.76
72636;BME280;60679;48.888;15.544;2024-03-17T10:27:29;96733.13;;;17.24;48.19
72636;BME280;60679;48.888;15.544;2024-03-17T10:29:54;96721.13;;;18.54;46.48
72636;BME280;60679;48.888;15.544;2024-03-17T10:32:21;96722.81;;;19.69;44.66
72636;BME280;60679;48.888;15.544;2024-03-17T10:34:49;96726.66;;;22.32;42.61
72636;BME280;60679;48.888;15.544;2024-03-17T10:37:19;96711.94;;;20.30;44.52
72636;BME280;60679;48.888;15.544;2024-03-17T10:39:50;96729.91;;;17.98;46.65
72636;BME280;60679;48.888;15.544;2024-03-17T10:42:24;96730.41;;;16.14;48.77
72636;BME280;60679;48.888;15.544;2024-03-17T10:44:49;96729.38;;;18.32;46.97
72636;BME280;60679;48.888;15.544;2024-03-17T10:47:23;96725.59;;;17.10;48.26
72636;BME280;60679;48.888;15.544;2024-03-17T10:49:53;96724.22;;;16.19;49.95
72636;BME280;60679;48.888;15.544;2024-03-17T10:52:19;96718.81;;;15.74;49.99
72636;BME280;60679;48.888;15.544;2024-03-17T10:54:51;96722.09;;;15.20;50.54
72636;BME280;60679;48.888;15.544;2024-03-17T10:57:38;96719.53;;;15.70;50.03
72636;BME280;60679;48.888;15.544;2024-03-17T11:00:07;96722.00;;;15.54;49.48
72636;BME280;60679;48.888;15.544;2024-03-17T11:02:35;96722.00;;;16.33;48.81
72636;BME280;60679;48.888;15.544;2024-03-17T11:07:39;96706.44;;;20.55;43.96
72636;BME280;60679;48.888;15.544;2024-03-17T11:10:15;96702.25;;;21.72;42.32
72636;BME280;60679;48.888;15.544;2024-03-17T11:12:44;96705.13;;;22.73;40.72
72636;BME280;60679;48.888;15.544;2024-03-17T11:17:49;96699.03;;;20.55;43.79
72636;BME280;60679;48.888;15.544;2024-03-17T11:20:25;96704.69;;;18.22;46.62
72636;BME280;60679;48.888;15.544;2024-03-17T11:22:56;96703.84;;;19.52;45.02
72636;BME280;60679;48.888;15.544;2024-03-17T11:27:57;96692.91;;;23.79;40.16
72636;BME280;60679;48.888;15.544;2024-03-17T11:47:05;96672.13;;;23.44;40.48
72636;BME280;60679;48.888;15.544;2024-03-17T11:52:04;96665.81;;;26.28;38.59
72636;BME280;60679;48.888;15.544;2024-03-17T11:54:36;96655.19;;;26.44;37.56
72636;BME280;60679;48.888;15.544;2024-03-17T11:57:06;96650.38;;;25.77;37.62
72636;BME280;60679;48.888;15.544;2024-03-17T11:59:33;96654.09;;;26.53;38.49
72636;BME280;60679;48.888;15.544;2024-03-17T12:01:59;96652.34;;;26.57;37.51
72636;BME280;60679;48.888;15.544;2024-03-17T12:04:25;96644.66;;;25.74;37.83
72636;BME280;60679;48.888;15.544;2024-03-17T12:06:55;96632.69;;;24.83;38.49
72636;BME280;60679;48.888;15.544;2024-03-17T12:09:29;96641.00;;;25.10;38.64
72636;BME280;60679;48.888;15.544;2024-03-17T12:12:08;96641.31;;;22.61;41.13
72636;BME280;60679;48.888;15.544;2024-03-17T12:14:35;96637.41;;;23.62;40.28
72636;BME280;60679;48.888;15.544;2024-03-17T12:17:02;96634.38;;;24.79;38.96
72636;BME280;60679;48.888;15.544;2024-03-17T12:19:28;96635.25;;;25.34;37.98
72636;BME280;60679;48.888;15.544;2024-03-17T12:22:04;96635.50;;;24.78;37.78
72636;BME280;60679;48.888;15.544;2024-03-17T12:24:36;96625.69;;;24.07;39.32
72636;BME280;60679;48.888;15.544;2024-03-17T12:27:05;96622.38;;;24.56;38.85
72636;BME280;60679;48.888;15.544;2024-03-17T12:29:38;96616.78;;;24.29;39.41
72636;BME280;60679;48.888;15.544;2024-03-17T12:32:14;96620.91;;;23.57;38.61
72636;BME280;60679;48.888;15.544;2024-03-17T12:34:42;96616.78;;;22.93;40.16
72636;BME280;60679;48.888;15.544;2024-03-17T12:37:07;96612.28;;;23.64;39.33
72636;BME280;60679;48.888;15.544;2024-03-17T12:39:35;96603.03;;;23.92;39.38
72636;BME280;60679;48.888;15.544;2024-03-17T12:42:05;96604.09;;;24.28;38.43
72636;BME280;60679;48.888;15.544;2024-03-17T12:44:33;96593.66;;;24.71;38.81
72636;BME280;60679;48.888;15.544;2024-03-17T12:47:02;96601.59;;;23.94;38.43
72636;BME280;60679;48.888;15.544;2024-03-17T12:49:30;96602.34;;;23.63;38.39
72636;BME280;60679;48.888;15.544;2024-03-17T12:51:55;96594.16;;;23.95;38.84
72636;BME280;60679;48.888;15.544;2024-03-17T12:54:25;96593.03;;;23.96;38.37
72636;BME280;60679;48.888;15.544;2024-03-17T12:56:52;96585.19;;;23.28;37.82
72636;BME280;60679;48.888;15.544;2024-03-17T12:59:46;96574.41;;;24.66;38.12
72636;BME280;60679;48.888;15.544;2024-03-17T13:02:42;96579.78;;;23.79;38.95
72636;BME280;60679;48.888;15.544;2024-03-17T13:05:14;96576.41;;;24.33;38.01
72636;BME280;60679;48.888;15.544;2024-03-17T13:07:40;96568.28;;;24.69;37.79
72636;BME280;60679;48.888;15.544;2024-03-17T13:10:06;96574.44;;;25.70;37.16
72636;BME280;60679;48.888;15.544;2024-03-17T13:12:33;96554.66;;;25.27;36.53
72636;BME280;60679;48.888;15.544;2024-03-17T13:14:58;96566.06;;;24.25;37.30
72636;BME280;60679;48.888;15.544;2024-03-17T13:17:24;96556.06;;;24.29;37.40
72636;BME280;60679;48.888;15.544;2024-03-17T13:19:49;96549.63;;;25.29;36.94
72636;BME280;60679;48.888;15.544;2024-03-17T13:22:14;96544.34;;;26.13;36.31